sensor_id;sensor_type;location;lat;lon;timestamp;pressure;altitude;pressure_sealevel;temperature;humidity
77723;BME280;67811;42.656;23.394;2023-06-22T00:01:32;95480.78;;;17.55;73.16
77723;BME280;67811;42.656;23.394;2023-06-22T00:03:57;95479.47;;;17.39;73.74
77723;BME280;67811;42.656;23.394;2023-06-22T00:06:22;95472.94;;;17.29;74.29
77723;BME280;67811;42.656;23.394;2023-06-22T00:08:48;95478.13;;;17.24;75.06
77723;BME280;67811;42.656;23.394;2023-06-22T00:11:13;95481.16;;;17.34;73.60
77723;BME280;67811;42.656;23.394;2023-06-22T00:13:39;95474.56;;;17.36;73.45
77723;BME280;67811;42.656;23.394;2023-06-22T00:16:04;95475.75;;;17.41;73.35
77723;BME280;67811;42.656;23.394;2023-06-22T00:18:29;95471.44;;;17.39;73.53
77723;BME280;67811;42.656;23.394;2023-06-22T00:20:55;95466.19;;;17.26;73.68
77723;BME280;67811;42.656;23.394;2023-06-22T00:23:20;95466.75;;;17.03;74.16
77723;BME280;67811;42.656;23.394;2023-06-22T00:25:46;95463.53;;;16.88;74.43
77723;BME280;67811;42.656;23.394;2023-06-22T00:28:12;95455.97;;;16.78;74.51
77723;BME280;67811;42.656;23.394;2023-06-22T00:30:37;95450.22;;;16.75;74.75
77723;BME280;67811;42.656;23.394;2023-06-22T00:33:02;95446.72;;;16.74;74.67
77723;BME280;67811;42.656;23.394;2023-06-22T00:35:28;95446.09;;;16.79;74.85
77723;BME280;67811;42.656;23.394;2023-06-22T00:37:53;95451.22;;;16.80;74.71
77723;BME280;67811;42.656;23.394;2023-06-22T00:40:18;95450.69;;;16.97;74.06
77723;BME280;67811;42.656;23.394;2023-06-22T00:42:44;95447.00;;;16.98;73.60
77723;BME280;67811;42.656;23.394;2023-06-22T00:45:09;95449.34;;;16.88;74.38
77723;BME280;67811;42.656;23.394;2023-06-22T00:47:35;95452.25;;;16.79;74.90
77723;BME280;67811;42.656;23.394;2023-06-22T00:50:02;95452.84;;;16.88;74.88
77723;BME280;67811;42.656;23.394;2023-06-22T00:52:27;95453.00;;;16.93;74.59
77723;BME280;67811;42.656;23.394;2023-06-22T00:54:53;95450.69;;;17.03;74.06
77723;BME280;67811;42.656;23.394;2023-06-22T00:57:19;95451.16;;;16.94;74.35
77723;BME280;67811;42.656;23.394;2023-06-22T00:59:45;95447.94;;;16.78;75.32
77723;BME280;67811;42.656;23.394;2023-06-22T01:02:12;95446.91;;;16.79;75.98
77723;BME280;67811;42.656;23.394;2023-06-22T01:04:38;95442.72;;;16.90;76.04
77723;BME280;67811;42.656;23.394;2023-06-22T01:12:22;95456.34;;;17.20;75.39
77723;BME280;67811;42.656;23.394;2023-06-22T01:14:55;95456.66;;;17.30;74.59
77723;BME280;67811;42.656;23.394;2023-06-22T01:17:24;95459.03;;;17.20;74.68
77723;BME280;67811;42.656;23.394;2023-06-22T01:19:54;95468.75;;;17.15;75.28
77723;BME280;67811;42.656;23.394;2023-06-22T01:22:22;95457.00;;;17.16;75.85
77723;BME280;67811;42.656;23.394;2023-06-22T01:25:07;95458.34;;;17.25;75.26
77723;BME280;67811;42.656;23.394;2023-06-22T01:27:56;95462.16;;;17.42;73.99
77723;BME280;67811;42.656;23.394;2023-06-22T01:30:24;95462.97;;;17.43;74.40
77723;BME280;67811;42.656;23.394;2023-06-22T01:32:50;95471.81;;;17.43;74.80
77723;BME280;67811;42.656;23.394;2023-06-22T01:35:18;95469.22;;;17.36;74.46
77723;BME280;67811;42.656;23.394;2023-06-22T01:37:45;95470.84;;;17.37;75.00
77723;BME280;67811;42.656;23.394;2023-06-22T01:40:11;95467.88;;;17.46;74.88
77723;BME280;67811;42.656;23.394;2023-06-22T01:42:38;95465.75;;;17.54;74.97
77723;BME280;67811;42.656;23.394;2023-06-22T01:45:04;95467.91;;;17.71;74.00
77723;BME280;67811;42.656;23.394;2023-06-22T01:47:30;95473.63;;;17.81;73.26
77723;BME280;67811;42.656;23.394;2023-06-22T01:49:56;95474.78;;;17.85;73.14
77723;BME280;67811;42.656;23.394;2023-06-22T01:52:22;95470.38;;;17.72;73.64
77723;BME280;67811;42.656;23.394;2023-06-22T01:54:47;95474.25;;;17.76;73.66
77723;BME280;67811;42.656;23.394;2023-06-22T01:57:13;95480.06;;;17.73;73.75
77723;BME280;67811;42.656;23.394;2023-06-22T02:00:00;95480.25;;;17.72;74.16
77723;BME280;67811;42.656;23.394;2023-06-22T02:02:32;95478.69;;;17.64;75.04
77723;BME280;67811;42.656;23.394;2023-06-22T02:05:05;95486.03;;;17.69;75.13
77723;BME280;67811;42.656;23.394;2023-06-22T02:07:34;95485.44;;;17.67;75.25
77723;BME280;67811;42.656;23.394;2023-06-22T02:10:03;95486.25;;;17.67;75.67
77723;BME280;67811;42.656;23.394;2023-06-22T02:12:32;95488.53;;;17.70;74.94
77723;BME280;67811;42.656;23.394;2023-06-22T02:14:58;95492.28;;;17.62;75.14
77723;BME280;67811;42.656;23.394;2023-06-22T02:17:24;95490.94;;;17.78;74.03
77723;BME280;67811;42.656;23.394;2023-06-22T02:19:50;95480.09;;;17.67;74.45
77723;BME280;67811;42.656;23.394;2023-06-22T02:22:15;95477.72;;;17.52;74.78
77723;BME280;67811;42.656;23.394;2023-06-22T02:24:41;95482.44;;;17.56;75.33
77723;BME280;67811;42.656;23.394;2023-06-22T02:27:06;95479.09;;;17.61;73.54
77723;BME280;67811;42.656;23.394;2023-06-22T02:29:31;95475.38;;;17.37;74.67
77723;BME280;67811;42.656;23.394;2023-06-22T02:31:57;95478.72;;;17.32;74.31
77723;BME280;67811;42.656;23.394;2023-06-22T02:34:22;95471.19;;;17.16;75.29
77723;BME280;67811;42.656;23.394;2023-06-22T02:36:50;95469.25;;;16.98;76.25
77723;BME280;67811;42.656;23.394;2023-06-22T02:39:25;95472.22;;;16.83;77.14
77723;BME280;67811;42.656;23.394;2023-06-22T02:41:54;95476.34;;;16.79;76.76
77723;BME280;67811;42.656;23.394;2023-06-22T02:44:20;95473.72;;;16.66;77.65
77723;BME280;67811;42.656;23.394;2023-06-22T02:46:46;95480.69;;;16.67;77.53
77723;BME280;67811;42.656;23.394;2023-06-22T02:49:12;95473.34;;;16.56;77.92
77723;BME280;67811;42.656;23.394;2023-06-22T02:51:44;95485.06;;;16.55;78.16
77723;BME280;67811;42.656;23.394;2023-06-22T02:54:09;95484.66;;;16.51;78.28
77723;BME280;67811;42.656;23.394;2023-06-22T02:56:35;95490.00;;;16.51;78.57
77723;BME280;67811;42.656;23.394;2023-06-22T02:59:00;95486.78;;;16.43;78.82
77723;BME280;67811;42.656;23.394;2023-06-22T03:01:25;95484.53;;;16.33;79.38
77723;BME280;67811;42.656;23.394;2023-06-22T03:03:51;95493.38;;;16.33;79.56
77723;BME280;67811;42.656;23.394;2023-06-22T03:06:16;95497.25;;;16.44;78.63
77723;BME280;67811;42.656;23.394;2023-06-22T03:08:41;95494.34;;;16.46;78.57
77723;BME280;67811;42.656;23.394;2023-06-22T03:11:07;95483.22;;;16.55;77.60
77723;BME280;67811;42.656;23.394;2023-06-22T03:13:32;95489.97;;;16.58;77.53
77723;BME280;67811;42.656;23.394;2023-06-22T03:15:57;95493.09;;;16.55;77.43
77723;BME280;67811;42.656;23.394;2023-06-22T03:18:23;95497.16;;;16.64;77.29
77723;BME280;67811;42.656;23.394;2023-06-22T03:20:48;95497.38;;;16.63;77.25
77723;BME280;67811;42.656;23.394;2023-06-22T03:23:13;95510.34;;;16.66;77.13
77723;BME280;67811;42.656;23.394;2023-06-22T03:25:38;95513.41;;;16.69;77.32
77723;BME280;67811;42.656;23.394;2023-06-22T03:28:04;95509.31;;;16.67;77.25
77723;BME280;67811;42.656;23.394;2023-06-22T03:30:29;95516.56;;;16.59;77.56
77723;BME280;67811;42.656;23.394;2023-06-22T03:32:54;95515.53;;;16.47;78.14
77723;BME280;67811;42.656;23.394;2023-06-22T03:35:20;95511.84;;;16.42;78.38
77723;BME280;67811;42.656;23.394;2023-06-22T03:37:45;95519.03;;;16.48;78.36
77723;BME280;67811;42.656;23.394;2023-06-22T03:40:11;95516.31;;;16.61;77.83
77723;BME280;67811;42.656;23.394;2023-06-22T03:42:36;95516.75;;;16.71;77.76
77723;BME280;67811;42.656;23.394;2023-06-22T03:45:02;95522.09;;;16.71;77.69
77723;BME280;67811;42.656;23.394;2023-06-22T03:47:28;95522.69;;;16.73;77.59
77723;BME280;67811;42.656;23.394;2023-06-22T03:49:53;95529.03;;;16.79;77.76
77723;BME280;67811;42.656;23.394;2023-06-22T03:52:18;95529.44;;;16.82;77.21
77723;BME280;67811;42.656;23.394;2023-06-22T03:54:43;95527.97;;;16.86;77.23
77723;BME280;67811;42.656;23.394;2023-06-22T03:57:09;95531.28;;;16.89;77.68
77723;BME280;67811;42.656;23.394;2023-06-22T03:59:34;95537.38;;;17.02;77.08
77723;BME280;67811;42.656;23.394;2023-06-22T04:01:59;95536.00;;;17.25;76.99
77723;BME280;67811;42.656;23.394;2023-06-22T04:04:24;95542.03;;;17.52;75.48
77723;BME280;67811;42.656;23.394;2023-06-22T04:06:50;95534.72;;;17.65;74.60
77723;BME280;67811;42.656;23.394;2023-06-22T04:09:15;95543.72;;;17.78;74.13
77723;BME280;67811;42.656;23.394;2023-06-22T04:11:40;95536.34;;;17.73;74.61
77723;BME280;67811;42.656;23.394;2023-06-22T04:14:06;95542.84;;;17.84;73.74
77723;BME280;67811;42.656;23.394;2023-06-22T04:16:31;95534.56;;;17.92;73.73
77723;BME280;67811;42.656;23.394;2023-06-22T04:18:56;95532.22;;;17.96;72.80
77723;BME280;67811;42.656;23.394;2023-06-22T04:21:21;95536.06;;;18.06;72.40
77723;BME280;67811;42.656;23.394;2023-06-22T04:23:47;95532.28;;;18.14;72.16
77723;BME280;67811;42.656;23.394;2023-06-22T04:26:13;95531.09;;;18.10;71.06
77723;BME280;67811;42.656;23.394;2023-06-22T04:28:38;95520.59;;;18.27;70.85
77723;BME280;67811;42.656;23.394;2023-06-22T04:31:03;95515.97;;;18.34;71.26
77723;BME280;67811;42.656;23.394;2023-06-22T04:33:29;95508.75;;;18.34;71.21
77723;BME280;67811;42.656;23.394;2023-06-22T04:35:55;95513.53;;;18.32;71.29
77723;BME280;67811;42.656;23.394;2023-06-22T04:38:20;95509.28;;;18.25;72.16
77723;BME280;67811;42.656;23.394;2023-06-22T04:40:45;95506.38;;;18.26;72.31
77723;BME280;67811;42.656;23.394;2023-06-22T04:43:11;95506.06;;;18.34;71.88
77723;BME280;67811;42.656;23.394;2023-06-22T04:45:36;95504.75;;;18.25;71.69
77723;BME280;67811;42.656;23.394;2023-06-22T04:48:01;95504.59;;;18.38;72.14
77723;BME280;67811;42.656;23.394;2023-06-22T04:50:27;95508.69;;;18.59;71.46
77723;BME280;67811;42.656;23.394;2023-06-22T04:52:52;95505.78;;;18.61;71.23
77723;BME280;67811;42.656;23.394;2023-06-22T04:55:20;95511.03;;;18.74;71.00
77723;BME280;67811;42.656;23.394;2023-06-22T04:57:45;95514.97;;;18.90;71.02
77723;BME280;67811;42.656;23.394;2023-06-22T05:00:11;95516.19;;;19.24;70.74
77723;BME280;67811;42.656;23.394;2023-06-22T05:02:40;95526.16;;;19.77;68.01
77723;BME280;67811;42.656;23.394;2023-06-22T05:05:06;95526.53;;;19.92;66.84
77723;BME280;67811;42.656;23.394;2023-06-22T05:07:33;95530.16;;;19.98;66.81
77723;BME280;67811;42.656;23.394;2023-06-22T05:09:58;95531.91;;;20.04;66.47
77723;BME280;67811;42.656;23.394;2023-06-22T05:12:23;95526.78;;;20.26;66.16
77723;BME280;67811;42.656;23.394;2023-06-22T05:14:49;95518.34;;;20.69;64.40
77723;BME280;67811;42.656;23.394;2023-06-22T05:17:14;95518.91;;;20.83;63.57
77723;BME280;67811;42.656;23.394;2023-06-22T05:19:41;95521.50;;;20.78;63.33
77723;BME280;67811;42.656;23.394;2023-06-22T05:22:06;95522.19;;;21.14;63.12
77723;BME280;67811;42.656;23.394;2023-06-22T05:24:31;95523.09;;;21.31;62.56
77723;BME280;67811;42.656;23.394;2023-06-22T05:26:57;95532.72;;;21.55;61.36
77723;BME280;67811;42.656;23.394;2023-06-22T05:29:22;95528.59;;;21.53;61.50
77723;BME280;67811;42.656;23.394;2023-06-22T05:31:47;95523.03;;;21.88;61.67
77723;BME280;67811;42.656;23.394;2023-06-22T05:34:13;95536.69;;;21.98;61.13
77723;BME280;67811;42.656;23.394;2023-06-22T05:36:38;95542.72;;;21.89;61.69
77723;BME280;67811;42.656;23.394;2023-06-22T05:39:14;95545.34;;;21.83;61.63
77723;BME280;67811;42.656;23.394;2023-06-22T05:41:39;95550.19;;;21.98;61.13
77723;BME280;67811;42.656;23.394;2023-06-22T05:44:05;95555.91;;;22.19;60.31
77723;BME280;67811;42.656;23.394;2023-06-22T05:46:30;95554.63;;;22.38;59.72
77723;BME280;67811;42.656;23.394;2023-06-22T05:48:55;95557.88;;;22.40;59.29
77723;BME280;67811;42.656;23.394;2023-06-22T05:51:21;95557.66;;;22.42;59.32
77723;BME280;67811;42.656;23.394;2023-06-22T05:53:46;95556.47;;;22.54;59.34
77723;BME280;67811;42.656;23.394;2023-06-22T05:56:11;95558.84;;;22.51;59.08
77723;BME280;67811;42.656;23.394;2023-06-22T05:58:36;95555.81;;;22.64;58.48
77723;BME280;67811;42.656;23.394;2023-06-22T06:01:02;95551.72;;;23.00;57.80
77723;BME280;67811;42.656;23.394;2023-06-22T06:03:27;95551.09;;;23.15;56.78
77723;BME280;67811;42.656;23.394;2023-06-22T06:05:52;95547.06;;;23.18;56.27
77723;BME280;67811;42.656;23.394;2023-06-22T06:08:17;95548.06;;;23.11;56.73
77723;BME280;67811;42.656;23.394;2023-06-22T06:10:43;95550.06;;;23.21;56.72
77723;BME280;67811;42.656;23.394;2023-06-22T06:13:08;95539.78;;;23.45;56.25
77723;BME280;67811;42.656;23.394;2023-06-22T06:15:34;95537.09;;;23.45;55.62
77723;BME280;67811;42.656;23.394;2023-06-22T06:17:59;95532.59;;;23.29;55.89
77723;BME280;67811;42.656;23.394;2023-06-22T06:20:26;95532.47;;;23.40;56.32
77723;BME280;67811;42.656;23.394;2023-06-22T06:22:52;95531.22;;;23.75;55.77
77723;BME280;67811;42.656;23.394;2023-06-22T06:25:17;95529.88;;;23.56;55.78
77723;BME280;67811;42.656;23.394;2023-06-22T06:27:43;95534.00;;;23.85;56.47
77723;BME280;67811;42.656;23.394;2023-06-22T06:30:10;95531.84;;;24.52;53.81
77723;BME280;67811;42.656;23.394;2023-06-22T06:32:35;95530.69;;;24.42;53.21
77723;BME280;67811;42.656;23.394;2023-06-22T06:35:00;95530.31;;;24.29;54.06
77723;BME280;67811;42.656;23.394;2023-06-22T06:37:26;95530.84;;;24.31;54.24
77723;BME280;67811;42.656;23.394;2023-06-22T06:39:51;95535.88;;;24.12;54.17
77723;BME280;67811;42.656;23.394;2023-06-22T06:42:16;95526.09;;;24.11;54.80
77723;BME280;67811;42.656;23.394;2023-06-22T06:44:42;95527.00;;;24.59;53.63
77723;BME280;67811;42.656;23.394;2023-06-22T06:47:07;95525.97;;;25.22;52.75
77723;BME280;67811;42.656;23.394;2023-06-22T06:49:33;95524.31;;;25.21;52.09
77723;BME280;67811;42.656;23.394;2023-06-22T06:51:58;95519.50;;;25.29;52.04
77723;BME280;67811;42.656;23.394;2023-06-22T06:54:24;95513.81;;;24.73;52.67
77723;BME280;67811;42.656;23.394;2023-06-22T06:56:49;95515.66;;;24.62;53.41
77723;BME280;67811;42.656;23.394;2023-06-22T06:59:14;95507.97;;;25.01;52.57
77723;BME280;67811;42.656;23.394;2023-06-22T07:01:40;95512.91;;;25.14;51.64
77723;BME280;67811;42.656;23.394;2023-06-22T07:04:05;95509.72;;;25.22;51.29
77723;BME280;67811;42.656;23.394;2023-06-22T07:06:30;95512.63;;;25.06;51.47
77723;BME280;67811;42.656;23.394;2023-06-22T07:08:55;95506.94;;;25.07;51.08
77723;BME280;67811;42.656;23.394;2023-06-22T07:11:21;95510.63;;;24.91;51.35
77723;BME280;67811;42.656;23.394;2023-06-22T07:13:46;95514.88;;;25.29;51.58
77723;BME280;67811;42.656;23.394;2023-06-22T07:16:11;95510.25;;;25.25;50.33
77723;BME280;67811;42.656;23.394;2023-06-22T07:18:37;95506.34;;;25.05;50.59
77723;BME280;67811;42.656;23.394;2023-06-22T07:21:04;95498.91;;;25.53;50.21
77723;BME280;67811;42.656;23.394;2023-06-22T07:23:29;95510.03;;;25.52;49.40
77723;BME280;67811;42.656;23.394;2023-06-22T07:25:54;95509.31;;;25.97;48.89
77723;BME280;67811;42.656;23.394;2023-06-22T07:28:20;95508.50;;;26.27;47.04
77723;BME280;67811;42.656;23.394;2023-06-22T07:30:46;95509.03;;;26.39;46.70
77723;BME280;67811;42.656;23.394;2023-06-22T07:33:11;95506.03;;;26.51;47.02
77723;BME280;67811;42.656;23.394;2023-06-22T07:35:36;95507.28;;;26.89;47.00
77723;BME280;67811;42.656;23.394;2023-06-22T07:38:01;95508.19;;;27.39;45.72
77723;BME280;67811;42.656;23.394;2023-06-22T07:40:27;95503.75;;;27.98;43.78
77723;BME280;67811;42.656;23.394;2023-06-22T07:42:52;95514.38;;;28.33;42.44
77723;BME280;67811;42.656;23.394;2023-06-22T07:45:17;95510.81;;;28.38;42.20
77723;BME280;67811;42.656;23.394;2023-06-22T07:47:43;95496.69;;;28.60;41.67
77723;BME280;67811;42.656;23.394;2023-06-22T07:50:08;95505.78;;;29.03;40.94
77723;BME280;67811;42.656;23.394;2023-06-22T07:52:34;95508.22;;;29.05;40.24
77723;BME280;67811;42.656;23.394;2023-06-22T07:54:59;95509.56;;;29.07;40.54
77723;BME280;67811;42.656;23.394;2023-06-22T07:57:25;95507.03;;;29.11;39.95
77723;BME280;67811;42.656;23.394;2023-06-22T07:59:50;95500.41;;;29.60;40.18
77723;BME280;67811;42.656;23.394;2023-06-22T08:02:15;95501.00;;;29.76;38.75
77723;BME280;67811;42.656;23.394;2023-06-22T08:04:41;95497.75;;;29.92;37.93
77723;BME280;67811;42.656;23.394;2023-06-22T08:07:06;95500.88;;;29.86;37.94
77723;BME280;67811;42.656;23.394;2023-06-22T08:09:32;95498.56;;;30.44;37.12
77723;BME280;67811;42.656;23.394;2023-06-22T08:11:58;95494.47;;;30.28;36.98
77723;BME280;67811;42.656;23.394;2023-06-22T08:14:27;95496.13;;;29.91;37.66
77723;BME280;67811;42.656;23.394;2023-06-22T08:16:52;95494.59;;;29.66;37.76
77723;BME280;67811;42.656;23.394;2023-06-22T08:19:18;95485.00;;;29.07;39.02
77723;BME280;67811;42.656;23.394;2023-06-22T08:21:43;95490.41;;;28.83;40.10
77723;BME280;67811;42.656;23.394;2023-06-22T08:24:08;95483.22;;;28.93;40.17
77723;BME280;67811;42.656;23.394;2023-06-22T08:26:34;95482.47;;;29.35;39.39
77723;BME280;67811;42.656;23.394;2023-06-22T08:28:59;95473.28;;;29.45;39.09
77723;BME280;67811;42.656;23.394;2023-06-22T08:31:24;95473.66;;;29.19;39.08
77723;BME280;67811;42.656;23.394;2023-06-22T08:33:49;95470.78;;;29.29;39.83
77723;BME280;67811;42.656;23.394;2023-06-22T08:36:15;95465.06;;;30.20;37.86
77723;BME280;67811;42.656;23.394;2023-06-22T08:38:40;95481.34;;;30.58;37.98
77723;BME280;67811;42.656;23.394;2023-06-22T08:41:05;95475.56;;;30.59;36.73
77723;BME280;67811;42.656;23.394;2023-06-22T08:43:30;95475.94;;;30.06;37.54
77723;BME280;67811;42.656;23.394;2023-06-22T08:45:56;95472.78;;;30.18;37.70
77723;BME280;67811;42.656;23.394;2023-06-22T08:48:21;95481.75;;;30.65;37.46
77723;BME280;67811;42.656;23.394;2023-06-22T08:50:48;95491.16;;;30.91;36.70
77723;BME280;67811;42.656;23.394;2023-06-22T08:53:14;95489.13;;;30.83;36.75
77723;BME280;67811;42.656;23.394;2023-06-22T08:55:39;95482.44;;;30.89;36.88
77723;BME280;67811;42.656;23.394;2023-06-22T08:58:04;95473.91;;;31.05;36.42
77723;BME280;67811;42.656;23.394;2023-06-22T09:00:30;95470.47;;;31.27;36.03
77723;BME280;67811;42.656;23.394;2023-06-22T09:02:56;95467.00;;;31.48;36.04
77723;BME280;67811;42.656;23.394;2023-06-22T09:05:21;95465.78;;;31.77;35.54
77723;BME280;67811;42.656;23.394;2023-06-22T09:07:46;95454.06;;;31.99;34.88
77723;BME280;67811;42.656;23.394;2023-06-22T09:10:11;95454.91;;;32.08;33.76
77723;BME280;67811;42.656;23.394;2023-06-22T09:12:37;95458.16;;;31.24;34.93
77723;BME280;67811;42.656;23.394;2023-06-22T09:15:02;95459.41;;;31.68;34.35
77723;BME280;67811;42.656;23.394;2023-06-22T09:17:28;95458.84;;;31.80;34.92
77723;BME280;67811;42.656;23.394;2023-06-22T09:19:53;95455.59;;;32.14;34.45
77723;BME280;67811;42.656;23.394;2023-06-22T09:22:18;95456.91;;;32.16;33.89
77723;BME280;67811;42.656;23.394;2023-06-22T09:24:44;95463.66;;;32.64;33.57
77723;BME280;67811;42.656;23.394;2023-06-22T09:27:09;95461.72;;;32.64;33.76
77723;BME280;67811;42.656;23.394;2023-06-22T09:29:34;95449.47;;;32.39;32.97
77723;BME280;67811;42.656;23.394;2023-06-22T09:32:00;95454.84;;;32.44;33.07
77723;BME280;67811;42.656;23.394;2023-06-22T09:34:26;95463.44;;;31.84;33.39
77723;BME280;67811;42.656;23.394;2023-06-22T09:36:51;95462.25;;;32.21;34.05
77723;BME280;67811;42.656;23.394;2023-06-22T09:39:18;95456.41;;;32.68;33.65
77723;BME280;67811;42.656;23.394;2023-06-22T09:41:43;95471.63;;;33.14;32.20
77723;BME280;67811;42.656;23.394;2023-06-22T09:44:09;95460.69;;;33.40;31.83
77723;BME280;67811;42.656;23.394;2023-06-22T09:46:34;95454.59;;;33.86;31.31
77723;BME280;67811;42.656;23.394;2023-06-22T09:49:02;95461.06;;;33.73;30.73
77723;BME280;67811;42.656;23.394;2023-06-22T09:51:27;95456.06;;;33.92;30.92
77723;BME280;67811;42.656;23.394;2023-06-22T09:53:52;95450.56;;;33.92;31.55
77723;BME280;67811;42.656;23.394;2023-06-22T09:56:18;95453.47;;;33.87;29.79
77723;BME280;67811;42.656;23.394;2023-06-22T09:58:44;95452.69;;;32.64;31.06
77723;BME280;67811;42.656;23.394;2023-06-22T10:01:10;95447.69;;;32.66;31.33
77723;BME280;67811;42.656;23.394;2023-06-22T10:03:36;95439.16;;;32.36;32.14
77723;BME280;67811;42.656;23.394;2023-06-22T10:06:02;95436.88;;;32.69;31.42
77723;BME280;67811;42.656;23.394;2023-06-22T10:08:27;95431.97;;;32.58;31.48
77723;BME280;67811;42.656;23.394;2023-06-22T10:10:53;95440.50;;;32.47;31.79
77723;BME280;67811;42.656;23.394;2023-06-22T10:13:18;95430.59;;;33.09;30.92
77723;BME280;67811;42.656;23.394;2023-06-22T10:15:43;95428.69;;;33.26;30.05
77723;BME280;67811;42.656;23.394;2023-06-22T10:18:09;95427.06;;;33.34;29.55
77723;BME280;67811;42.656;23.394;2023-06-22T10:20:34;95429.22;;;33.54;29.39
77723;BME280;67811;42.656;23.394;2023-06-22T10:22:59;95432.78;;;33.46;28.63
77723;BME280;67811;42.656;23.394;2023-06-22T10:25:24;95429.72;;;33.74;28.09
77723;BME280;67811;42.656;23.394;2023-06-22T10:27:50;95432.13;;;33.75;28.52
77723;BME280;67811;42.656;23.394;2023-06-22T10:30:15;95435.69;;;33.93;29.15
77723;BME280;67811;42.656;23.394;2023-06-22T10:32:42;95422.38;;;34.21;27.83
77723;BME280;67811;42.656;23.394;2023-06-22T10:35:08;95422.25;;;33.92;27.46
77723;BME280;67811;42.656;23.394;2023-06-22T10:37:33;95415.00;;;33.61;27.61
77723;BME280;67811;42.656;23.394;2023-06-22T10:39:59;95422.47;;;32.95;27.46
77723;BME280;67811;42.656;23.394;2023-06-22T10:42:24;95421.84;;;32.67;28.30
77723;BME280;67811;42.656;23.394;2023-06-22T10:44:49;95416.16;;;32.01;29.46
77723;BME280;67811;42.656;23.394;2023-06-22T10:47:15;95410.44;;;32.11;29.55
77723;BME280;67811;42.656;23.394;2023-06-22T10:49:41;95410.75;;;31.01;31.68
77723;BME280;67811;42.656;23.394;2023-06-22T10:52:07;95413.84;;;30.72;32.07
77723;BME280;67811;42.656;23.394;2023-06-22T10:54:34;95411.03;;;31.13;32.23
77723;BME280;67811;42.656;23.394;2023-06-22T10:57:00;95407.34;;;31.45;30.89
77723;BME280;67811;42.656;23.394;2023-06-22T10:59:25;95405.88;;;31.62;31.76
77723;BME280;67811;42.656;23.394;2023-06-22T11:01:50;95406.75;;;32.16;30.99
77723;BME280;67811;42.656;23.394;2023-06-22T11:04:15;95409.69;;;32.50;31.03
77723;BME280;67811;42.656;23.394;2023-06-22T11:06:41;95408.94;;;32.59;30.53
77723;BME280;67811;42.656;23.394;2023-06-22T11:09:06;95408.59;;;33.00;29.45
77723;BME280;67811;42.656;23.394;2023-06-22T11:11:31;95400.13;;;32.88;29.46
77723;BME280;67811;42.656;23.394;2023-06-22T11:13:56;95403.16;;;32.77;29.75
77723;BME280;67811;42.656;23.394;2023-06-22T11:16:22;95398.44;;;33.18;29.74
77723;BME280;67811;42.656;23.394;2023-06-22T11:18:47;95402.41;;;33.69;28.46
77723;BME280;67811;42.656;23.394;2023-06-22T11:21:12;95397.84;;;33.99;28.00
77723;BME280;67811;42.656;23.394;2023-06-22T11:23:38;95390.56;;;34.03;27.94
77723;BME280;67811;42.656;23.394;2023-06-22T11:26:03;95391.53;;;33.81;27.34
77723;BME280;67811;42.656;23.394;2023-06-22T11:28:28;95389.09;;;34.05;28.21
77723;BME280;67811;42.656;23.394;2023-06-22T11:30:53;95386.50;;;34.00;28.65
77723;BME280;67811;42.656;23.394;2023-06-22T11:33:19;95382.66;;;34.01;27.87
77723;BME280;67811;42.656;23.394;2023-06-22T11:35:44;95381.97;;;34.04;27.52
77723;BME280;67811;42.656;23.394;2023-06-22T11:38:09;95380.44;;;34.42;27.98
77723;BME280;67811;42.656;23.394;2023-06-22T11:40:35;95380.63;;;34.28;27.87
77723;BME280;67811;42.656;23.394;2023-06-22T11:43:00;95381.25;;;34.33;28.08
77723;BME280;67811;42.656;23.394;2023-06-22T11:45:25;95381.25;;;34.33;27.33
77723;BME280;67811;42.656;23.394;2023-06-22T11:47:50;95376.13;;;34.15;27.10
77723;BME280;67811;42.656;23.394;2023-06-22T11:50:16;95374.19;;;34.15;27.37
77723;BME280;67811;42.656;23.394;2023-06-22T11:52:41;95366.78;;;33.98;27.64
77723;BME280;67811;42.656;23.394;2023-06-22T11:55:07;95359.63;;;34.15;27.77
77723;BME280;67811;42.656;23.394;2023-06-22T11:57:36;95365.88;;;34.32;27.54
77723;BME280;67811;42.656;23.394;2023-06-22T12:00:03;95354.16;;;34.06;28.12
77723;BME280;67811;42.656;23.394;2023-06-22T12:02:32;95353.50;;;34.09;27.81
77723;BME280;67811;42.656;23.394;2023-06-22T12:04:57;95365.78;;;34.20;27.89
77723;BME280;67811;42.656;23.394;2023-06-22T12:07:22;95368.28;;;34.43;27.09
77723;BME280;67811;42.656;23.394;2023-06-22T12:09:48;95363.44;;;34.40;27.16
77723;BME280;67811;42.656;23.394;2023-06-22T12:12:13;95366.16;;;33.75;27.64
77723;BME280;67811;42.656;23.394;2023-06-22T12:14:38;95369.06;;;33.62;28.60
77723;BME280;67811;42.656;23.394;2023-06-22T12:17:03;95389.78;;;32.14;32.36
77723;BME280;67811;42.656;23.394;2023-06-22T12:19:29;95391.00;;;31.54;34.82
77723;BME280;67811;42.656;23.394;2023-06-22T12:21:54;95392.41;;;31.02;36.77
77723;BME280;67811;42.656;23.394;2023-06-22T12:24:19;95391.59;;;30.00;39.17
77723;BME280;67811;42.656;23.394;2023-06-22T12:26:45;95389.28;;;28.80;39.99
77723;BME280;67811;42.656;23.394;2023-06-22T12:29:10;95382.88;;;28.47;40.53
77723;BME280;67811;42.656;23.394;2023-06-22T12:31:36;95387.50;;;27.93;42.80
77723;BME280;67811;42.656;23.394;2023-06-22T12:34:03;95377.94;;;27.22;42.42
77723;BME280;67811;42.656;23.394;2023-06-22T12:36:29;95392.13;;;26.65;46.20
77723;BME280;67811;42.656;23.394;2023-06-22T12:38:54;95409.69;;;25.77;53.57
77723;BME280;67811;42.656;23.394;2023-06-22T12:41:19;95405.53;;;25.08;58.84
77723;BME280;67811;42.656;23.394;2023-06-22T12:43:44;95422.09;;;24.49;57.29
77723;BME280;67811;42.656;23.394;2023-06-22T12:46:10;95422.75;;;23.55;62.76
77723;BME280;67811;42.656;23.394;2023-06-22T12:48:35;95435.56;;;23.32;61.96